Compassion — 9V2887 — position and weather

sailwx.info

Track history (hours):
 
Tides and Currents Weather Stations Pressure Air Temp Water Temp Dewpoint Dewpoint Depression Visibility Wind Speed Wind Dir Waves Ship Positions

Compassion

Last reported at 2018-Feb-11 06:59 UTC. Time now 2018-Feb-22 07:20 UTC.
Position N 18°14' W 063°36'.
Warning: this ship's position is 11 days out of date.

Length 227 m; draft 10.5 m.

Type: Tanker. MMSI: 565136000.

Date/timePositionNaut miles runAvg speedWind from/ knotsBaromVisibWave heightAir tempDewpointWater temp
2018-Feb-11 06:59N 18°14' W 063°36'612.8
2018-Feb-11 06:29N 18°10' W 063°32'713.2
2018-Feb-11 05:55N 18°04' W 063°27'613.4
2018-Feb-11 05:29N 17°60' W 063°23'713.4
2018-Feb-11 04:58N 17°54' W 063°18'1012.2
2018-Feb-11 04:09N 17°47' W 063°12'1 6.0
2018-Feb-11 03:59N 17°46' W 063°11'3 4.3
2018-Feb-11 03:13N 17°43' W 063°09'210.7
2018-Feb-11 02:59N 17°41' W 063°08'812.7
2018-Feb-11 02:23N 17°34' W 063°04'6 7.6
2018-Feb-11 01:38N 17°29' W 063°01'1 3.1
2018-Feb-11 01:27N 17°30' W 063°01'0 0.6
2018-Feb-11 00:37N 17°30' W 063°00'0 0.0
2018-Feb-10 21:07N 17°30' W 063°00'0 0.0
2018-Feb-10 20:58N 17°30' W 063°00'0 0.0
2018-Feb-10 17:00N 17°30' W 063°00'0 0.0
2018-Feb-10 16:25N 17°30' W 063°00'0 0.0
2018-Feb-10 15:58N 17°30' W 063°00'0 0.0
2018-Feb-10 15:25N 17°30' W 063°00'0 0.0
2018-Feb-10 14:59N 17°30' W 063°00'0 0.0
2018-Feb-10 14:12N 17°30' W 063°00'0 0.0
2018-Feb-10 13:56N 17°30' W 063°00'0 0.0
2018-Feb-10 13:21N 17°30' W 063°00'0 0.0
2018-Feb-10 12:54N 17°30' W 063°00'0 0.0
2018-Feb-10 08:48N 17°30' W 063°00'0 0.0
2018-Feb-10 06:08N 17°30' W 063°00'0 0.0
2018-Feb-09 22:31N 17°30' W 063°00'  
2018-Feb-06 04:55N 17°30' W 063°00'2 0.2
2018-Feb-05 21:44N 17°29' W 063°02'0 0.0
2018-Feb-05 21:21N 17°29' W 063°02'0 0.0
2018-Feb-05 20:51N 17°29' W 063°02'0 0.1
2018-Feb-05 20:30N 17°29' W 063°02'0 0.0
2018-Feb-05 19:52N 17°29' W 063°02'0 0.0
2018-Feb-05 19:28N 17°29' W 063°02'0 0.0
2018-Feb-05 18:52N 17°29' W 063°02'0 0.1
2018-Feb-05 18:25N 17°29' W 063°02'0 0.1
2018-Feb-05 17:59N 17°29' W 063°02'0 0.0
2018-Feb-05 15:30N 17°29' W 063°02'0 0.0
2018-Feb-05 14:58N 17°29' W 063°02'0 0.0
2018-Feb-05 14:28N 17°29' W 063°02'0 0.1
2018-Feb-05 13:56N 17°29' W 063°02'0 0.1
2018-Feb-05 13:29N 17°29' W 063°02'0 0.0
2018-Feb-05 12:50N 17°29' W 063°02'0 0.0
2018-Feb-05 12:29N 17°29' W 063°02'0 0.0
2018-Feb-05 12:00N 17°29' W 063°02'0 0.0
2018-Feb-05 11:15N 17°29' W 063°02'0 0.0
2018-Feb-05 10:25N 17°29' W 063°02'0 0.0
2018-Feb-05 09:32N 17°29' W 063°02'0 0.1
2018-Feb-05 09:23N 17°29' W 063°02'0 0.0
2018-Feb-05 08:59N 17°29' W 063°02'0 0.0
2018-Feb-05 08:18N 17°29' W 063°02'0 0.0
2018-Feb-05 07:57N 17°29' W 063°02'0 0.0
2018-Feb-05 07:30N 17°29' W 063°02'0 0.0
2018-Feb-05 06:51N 17°29' W 063°02'0 0.0
2018-Feb-05 06:30N 17°29' W 063°02'0 0.0
2018-Feb-05 05:28N 17°29' W 063°02'0 0.0
2018-Feb-05 04:41N 17°29' W 063°02'0 0.1
2018-Feb-05 04:26N 17°29' W 063°02'0 0.1
2018-Feb-05 03:59N 17°29' W 063°02'0 0.0
2018-Feb-05 03:27N 17°29' W 063°02'0 0.0
2018-Feb-05 03:00N 17°29' W 063°02'0 0.0
2018-Feb-05 02:24N 17°29' W 063°02'0 0.0
2018-Feb-05 01:19N 17°29' W 063°02'0 0.0
2018-Feb-05 00:43N 17°29' W 063°02'0 0.0
2018-Feb-05 00:05N 17°29' W 063°02'0 0.1
2018-Feb-04 23:44N 17°29' W 063°02'0 0.1
2018-Feb-04 23:14N 17°29' W 063°02'0 0.0
2018-Feb-04 22:54N 17°29' W 063°02'0 0.0
2018-Feb-04 22:27N 17°29' W 063°02'0 0.0
2018-Feb-04 22:00N 17°29' W 063°02'0 0.0
2018-Feb-04 21:28N 17°29' W 063°02'0 0.0
2018-Feb-04 20:46N 17°29' W 063°02'0 0.1
2018-Feb-04 19:44N 17°29' W 063°02'0 0.1
2018-Feb-04 19:20N 17°29' W 063°02'0 0.1
2018-Feb-04 18:56N 17°29' W 063°02'0 0.0
2018-Feb-04 18:30N 17°29' W 063°02'0 0.2
2018-Feb-04 17:57N 17°29' W 063°02'0 0.1
2018-Feb-04 17:30N 17°29' W 063°02'0 0.1
2018-Feb-04 15:29N 17°29' W 063°02'0 0.1
2018-Feb-04 14:50N 17°29' W 063°02'0 0.1
2018-Feb-04 14:23N 17°29' W 063°02'  
Track history (hours):
 
Tides and Currents Weather Stations Pressure Air Temp Water Temp Dewpoint Dewpoint Depression Visibility Wind Speed Wind Dir Waves Ship Positions

Compassion

Last reported at 2018-Feb-11 06:59 UTC. Time now 2018-Feb-22 07:20 UTC.
Position N 18°14' W 063°36'.
Warning: this ship's position is 11 days out of date.

Length 227 m; draft 10.5 m.

Type: Tanker. MMSI: 565136000.

Date/timePositionNaut miles runAvg speedWind from/ knotsBaromVisibWave heightAir tempDewpointWater temp
2018-Feb-11 06:59N 18°14' W 063°36'612.8
2018-Feb-11 06:29N 18°10' W 063°32'713.2
2018-Feb-11 05:55N 18°04' W 063°27'613.4
2018-Feb-11 05:29N 17°60' W 063°23'713.4
2018-Feb-11 04:58N 17°54' W 063°18'1012.2
2018-Feb-11 04:09N 17°47' W 063°12'1 6.0
2018-Feb-11 03:59N 17°46' W 063°11'3 4.3
2018-Feb-11 03:13N 17°43' W 063°09'210.7
2018-Feb-11 02:59N 17°41' W 063°08'812.7
2018-Feb-11 02:23N 17°34' W 063°04'6 7.6
2018-Feb-11 01:38N 17°29' W 063°01'1 3.1
2018-Feb-11 01:27N 17°30' W 063°01'0 0.6
2018-Feb-11 00:37N 17°30' W 063°00'0 0.0
2018-Feb-10 21:07N 17°30' W 063°00'0 0.0
2018-Feb-10 20:58N 17°30' W 063°00'0 0.0
2018-Feb-10 17:00N 17°30' W 063°00'0 0.0
2018-Feb-10 16:25N 17°30' W 063°00'0 0.0
2018-Feb-10 15:58N 17°30' W 063°00'0 0.0
2018-Feb-10 15:25N 17°30' W 063°00'0 0.0
2018-Feb-10 14:59N 17°30' W 063°00'0 0.0
2018-Feb-10 14:12N 17°30' W 063°00'0 0.0
2018-Feb-10 13:56N 17°30' W 063°00'0 0.0
2018-Feb-10 13:21N 17°30' W 063°00'0 0.0
2018-Feb-10 12:54N 17°30' W 063°00'0 0.0
2018-Feb-10 08:48N 17°30' W 063°00'0 0.0
2018-Feb-10 06:08N 17°30' W 063°00'0 0.0
2018-Feb-09 22:31N 17°30' W 063°00'  
2018-Feb-06 04:55N 17°30' W 063°00'2 0.2
2018-Feb-05 21:44N 17°29' W 063°02'0 0.0
2018-Feb-05 21:21N 17°29' W 063°02'0 0.0
2018-Feb-05 20:51N 17°29' W 063°02'0 0.1
2018-Feb-05 20:30N 17°29' W 063°02'0 0.0
2018-Feb-05 19:52N 17°29' W 063°02'0 0.0
2018-Feb-05 19:28N 17°29' W 063°02'0 0.0
2018-Feb-05 18:52N 17°29' W 063°02'0 0.1
2018-Feb-05 18:25N 17°29' W 063°02'0 0.1
2018-Feb-05 17:59N 17°29' W 063°02'0 0.0
2018-Feb-05 15:30N 17°29' W 063°02'0 0.0
2018-Feb-05 14:58N 17°29' W 063°02'0 0.0
2018-Feb-05 14:28N 17°29' W 063°02'0 0.1
2018-Feb-05 13:56N 17°29' W 063°02'0 0.1
2018-Feb-05 13:29N 17°29' W 063°02'0 0.0
2018-Feb-05 12:50N 17°29' W 063°02'0 0.0
2018-Feb-05 12:29N 17°29' W 063°02'0 0.0
2018-Feb-05 12:00N 17°29' W 063°02'0 0.0
2018-Feb-05 11:15N 17°29' W 063°02'0 0.0
2018-Feb-05 10:25N 17°29' W 063°02'0 0.0
2018-Feb-05 09:32N 17°29' W 063°02'0 0.1
2018-Feb-05 09:23N 17°29' W 063°02'0 0.0
2018-Feb-05 08:59N 17°29' W 063°02'0 0.0
2018-Feb-05 08:18N 17°29' W 063°02'0 0.0
2018-Feb-05 07:57N 17°29' W 063°02'0 0.0
2018-Feb-05 07:30N 17°29' W 063°02'0 0.0
2018-Feb-05 06:51N 17°29' W 063°02'0 0.0
2018-Feb-05 06:30N 17°29' W 063°02'0 0.0
2018-Feb-05 05:28N 17°29' W 063°02'0 0.0
2018-Feb-05 04:41N 17°29' W 063°02'0 0.1
2018-Feb-05 04:26N 17°29' W 063°02'0 0.1
2018-Feb-05 03:59N 17°29' W 063°02'0 0.0
2018-Feb-05 03:27N 17°29' W 063°02'0 0.0
2018-Feb-05 03:00N 17°29' W 063°02'0 0.0
2018-Feb-05 02:24N 17°29' W 063°02'0 0.0
2018-Feb-05 01:19N 17°29' W 063°02'0 0.0
2018-Feb-05 00:43N 17°29' W 063°02'0 0.0
2018-Feb-05 00:05N 17°29' W 063°02'0 0.1
2018-Feb-04 23:44N 17°29' W 063°02'0 0.1
2018-Feb-04 23:14N 17°29' W 063°02'0 0.0
2018-Feb-04 22:54N 17°29' W 063°02'0 0.0
2018-Feb-04 22:27N 17°29' W 063°02'0 0.0
2018-Feb-04 22:00N 17°29' W 063°02'0 0.0
2018-Feb-04 21:28N 17°29' W 063°02'0 0.0
2018-Feb-04 20:46N 17°29' W 063°02'0 0.1
2018-Feb-04 19:44N 17°29' W 063°02'0 0.1
2018-Feb-04 19:20N 17°29' W 063°02'0 0.1
2018-Feb-04 18:56N 17°29' W 063°02'0 0.0
2018-Feb-04 18:30N 17°29' W 063°02'0 0.2
2018-Feb-04 17:57N 17°29' W 063°02'0 0.1
2018-Feb-04 17:30N 17°29' W 063°02'0 0.1
2018-Feb-04 15:29N 17°29' W 063°02'0 0.1
2018-Feb-04 14:50N 17°29' W 063°02'0 0.1
2018-Feb-04 14:23N 17°29' W 063°02'  

Dump ship's entire track history